Weather reports worldwide

Advertisment
Stavoren aws, Netherlands (6267): temperature & dewpoint: 15.01.2020 19:00:00 - 21.01.2020 19:00:00 (CET)Stavoren aws, Netherlands (6267): temperature 5cm: 15.01.2020 19:00:00 - 21.01.2020 19:00:00 (CET)Stavoren aws, Netherlands (6267): wind speed & gusts: 15.01.2020 19:00:00 - 21.01.2020 19:00:00 (CET)Stavoren aws, Netherlands (6267): wind direction: 15.01.2020 19:00:00 - 21.01.2020 19:00:00 (CET)Stavoren aws, Netherlands (6267): visibility: 15.01.2020 19:00:00 - 21.01.2020 19:00:00 (CET)Stavoren aws, Netherlands (6267): precipitation: 15.01.2020 19:00:00 - 21.01.2020 19:00:00 (CET)
Date & Time tt [°C] td [°C] tt 5cm [°C] ff [km/h] ff [kn] fx [km/h] fx [kn] dd vv [km] rr [mm]
21.01.2020 19:00:00 4,7 4,6 4,7 18 10 25 14 SW 1,1 0,0
21.01.2020 18:00:00 4,7 4,6 4,6 18 10 25 14 SSW 0,9 0,0
21.01.2020 17:00:00 5,7 4,0 5,0 11 6 18 10 WSW 18 0,0
21.01.2020 16:00:00 6,2 4,4 5,6 11 6 18 10 W 18 0,0
21.01.2020 15:00:00 5,8 5,6 5,9 14 8 22 12 SW 3,0 0,0
21.01.2020 14:00:00 5,0 4,9 5,4 18 10 25 14 SW 0,6 0,0
21.01.2020 13:00:00 4,6 4,5 5,2 18 10 29 16 SW 0,9 0,0
21.01.2020 12:00:00 4,3 4,2 4,5 18 10 32 18 SW 0,7 0,0
21.01.2020 11:00:00 4,6 3,8 4,6 18 10 25 14 SSW 5 0,0
21.01.2020 10:00:00 3,8 3,4 3,2 14 8 22 12 SSW 4,5 0,0
21.01.2020 09:00:00 3,1 2,9 2,9 18 10 32 18 SW 0,6 0,0
21.01.2020 08:00:00 2,7 2,4 2,4 22 12 29 16 SW 1,1 0,0
21.01.2020 07:00:00 2,5 2,1 1,9 18 10 29 16 SSW 4,1 0,0
21.01.2020 06:00:00 2,8 2,5 2,0 18 10 29 16 SSW 5 0,0
21.01.2020 05:00:00 3,6 3,0 2,7 18 10 25 14 SSW 9 0,0
21.01.2020 04:00:00 4,0 3,6 3,1 18 10 25 14 SW 6 0,0
21.01.2020 03:00:00 4,2 3,9 3,7 18 10 22 12 SSW 6 0,0
21.01.2020 02:00:00 4,6 4,2 4,2 14 8 25 14 SSW 11 0,0
21.01.2020 01:00:00 4,2 3,7 3,2 18 10 25 14 SSW 12 0,0
21.01.2020 00:00:00 4,6 3,8 4,1 14 8 22 12 SSW 16 0,0
20.01.2020 23:00:00 4,0 3,1 2,8 14 8 18 10 SSW 17 0,0
20.01.2020 22:00:00 4,4 3,2 3,3 11 6 18 10 SSW 20 0,0
20.01.2020 21:00:00 4,6 3,2 3,0 14 8 18 10 SSW 23 0,0
20.01.2020 20:00:00 4,2 3,0 3,1 11 6 22 12 SSW 24 0,0
20.01.2020 19:00:00 5,0 3,0 3,8 14 8 22 12 SSW 31 0,0
20.01.2020 18:00:00 6,1 3,7 5,5 14 8 22 12 SW 35 0,0
20.01.2020 17:00:00 6,4 4,0 5,9 14 8 18 10 SW 30 0,0
20.01.2020 16:00:00 6,7 4,6 6,6 11 6 22 12 SW 30 0,0
20.01.2020 15:00:00 7,0 4,8 6,7 14 8 22 12 SW 23 0,0
20.01.2020 14:00:00 6,8 5,4 7,0 14 8 25 14 SSW 19 0,0
20.01.2020 13:00:00 6,7 5,1 6,5 18 10 22 12 SW 20 0,0
20.01.2020 12:00:00 6,2 4,9 6,2 14 8 18 10 SW 19 0,0
20.01.2020 11:00:00 6,4 5,0 6,4 11 6 18 10 SW 20 0,0
20.01.2020 10:00:00 5,9 4,6 5,4 14 8 18 10 SW 20 0,0
20.01.2020 09:00:00 5,2 4,3 4,7 14 8 14 8 SW 16 0,0
20.01.2020 08:00:00 5,0 4,3 4,4 11 6 14 8 SW 15 0,0
20.01.2020 07:00:00 4,9 4,1 4,3 11 6 14 8 WSW 17 0,0
20.01.2020 06:00:00 4,8 4,0 4,1 11 6 14 8 WSW 17 0,0
20.01.2020 05:00:00 4,2 3,5 2,6 11 6 14 8 WSW 14 0,0
20.01.2020 04:00:00 3,5 3,0 1,9 7 4 14 8 WSW 14 0,0
20.01.2020 03:00:00 3,2 3,0 -0,3 11 6 14 8 W 10 0,0
20.01.2020 02:00:00 4,2 3,7 2,1 11 6 14 8 W 12 0,0
20.01.2020 01:00:00 4,6 4,1 2,6 11 6 14 8 W 11 0,0
20.01.2020 00:00:00 4,7 4,2 2,5 11 6 18 10 WNW 11 0,0
19.01.2020 23:00:00 4,9 4,2 3,4 11 6 18 10 WNW 11 0,0
19.01.2020 22:00:00 4,5 4,0 1,5 14 8 18 10 NW 10 0,0
19.01.2020 21:00:00 4,8 4,3 3,1 11 6 22 12 NNW 10 0,0
19.01.2020 20:00:00 5,5 4,7 4,2 18 10 22 12 NNW 10 0,0
19.01.2020 19:00:00 6,1 5,1 5,4 18 10 22 12 NNW 11 0,0
19.01.2020 18:00:00 5,7 4,7 4,6 14 8 25 14 NNW 11 0,0
19.01.2020 17:00:00 5,5 4,4 4,2 11 6 22 12 NNW 11 0,0
19.01.2020 16:00:00 6,4 4,6 5,9 18 10 25 14 NNW 12 0,0
19.01.2020 15:00:00 6,8 4,8 6,9 14 8 22 12 NNW 12 0,0
19.01.2020 14:00:00 7,1 4,2 7,3 18 10 22 12 NNW 12 0,0
19.01.2020 13:00:00 7,0 3,8 7,2 18 10 25 14 N 12 0,0
19.01.2020 12:00:00 7,1 3,4 7,1 14 8 18 10 N 13 0,0
19.01.2020 11:00:00 6,1 3,5 5,4 11 6 22 12 NNW 16 0,0
19.01.2020 10:00:00 4,9 2,4 4,7 22 12 32 18 NNE 20 0,0
19.01.2020 09:00:00 5,2 2,4 4,2 25 14 43 23 N 18 0,0
19.01.2020 08:00:00 5,4 3,2 4,3 22 12 32 18 N 17 0,0
19.01.2020 07:00:00 5,0 2,5 4,2 29 16 43 23 N 18 0,0
19.01.2020 06:00:00 5,0 3,5 3,7 14 8 40 21 N 13 0,0
19.01.2020 05:00:00 5,3 2,6 4,8 36 19 47 25 NW 16 0,0
19.01.2020 04:00:00 5,8 3,5 4,8 29 16 36 19 NW 14 0,0
19.01.2020 03:00:00 5,0 3,2 2,9 18 10 40 21 NW 15 0,2
19.01.2020 02:00:00 6,0 3,6 4,7 25 14 43 23 NW 16 0,0
19.01.2020 01:00:00 5,7 3,0 4,4 22 12 29 16 NW 19 0,0
19.01.2020 00:00:00 4,8 2,8 3,5 14 8 43 23 WNW 21 0,0
18.01.2020 23:00:00 5,8 3,3 4,3 25 14 40 21 WNW 21 0,0
18.01.2020 22:00:00 5,7 2,7 5,0 32 18 47 25 WNW 19 0,0
18.01.2020 21:00:00 5,6 2,6 4,2 29 16 43 23 WNW 32 0,0
18.01.2020 20:00:00 5,5 3,3 4,5 22 12 29 16 WNW 19 0,0
18.01.2020 19:00:00 5,8 3,3 4,7 22 12 32 18 NW 17 0,0
18.01.2020 18:00:00 5,9 3,3 4,8 22 12 32 18 WNW 15 0,0
18.01.2020 17:00:00 5,6 3,0 4,8 25 14 36 19 WNW 17 0,0
18.01.2020 16:00:00 5,6 3,5 4,9 22 12 32 18 W 25 0,0
18.01.2020 15:00:00 6,0 3,3 5,9 25 14 43 23 W 30 0,0
18.01.2020 14:00:00 5,5 3,2 4,6 18 10 43 23 WNW 23 0,1
18.01.2020 13:00:00 6,6 3,5 6,6 22 12 29 16 W 17 0,0
18.01.2020 12:00:00 6,4 3,8 5,9 22 12 32 18 W 20 0,0
18.01.2020 11:00:00 6,2 4,0 6,0 22 12 29 16 WSW 19 0,0
18.01.2020 10:00:00 5,7 4,0 5,0 18 10 25 14 WSW 19 0,0
18.01.2020 09:00:00 4,9 3,5 4,0 18 10 29 16 SW 19 0,0
18.01.2020 08:00:00 5,0 3,6 4,3 18 10 29 16 SW 18 0,0
18.01.2020 07:00:00 4,8 3,4 4,0 22 12 32 18 SW 22 0,0
18.01.2020 06:00:00 5,2 3,6 4,5 22 12 32 18 SW 22 0,0
18.01.2020 05:00:00 5,3 3,4 4,2 22 12 32 18 SW 22 0,0
18.01.2020 04:00:00 5,4 3,4 4,5 22 12 32 18 SW 21 0,0
18.01.2020 03:00:00 5,8 3,3 4,7 22 12 36 19 SW 22 0,0
18.01.2020 02:00:00 5,8 3,5 4,9 25 14 36 19 WSW 20 0,0
18.01.2020 01:00:00 5,9 3,5 5,1 29 16 43 23 WSW 20 0,0
18.01.2020 00:00:00 5,8 3,4 4,7 25 14 43 23 SW 24 0,0
17.01.2020 23:00:00 5,4 2,9 4,6 36 19 58 31 W 30 0,1
17.01.2020 22:00:00 6,0 3,8 5,1 32 18 58 31 W 27 0,0
17.01.2020 21:00:00 6,2 4,3 5,8 43 23 65 35 W 19 0,1
17.01.2020 20:00:00 7,6 4,7 7,0 32 18 43 23 SW 25 0,0
17.01.2020 19:00:00 8,0 5,6 7,5 32 18 47 25 SW 15 0,0
17.01.2020 18:00:00 8,5 5,9 7,8 29 16 43 23 SSW 17 0,0
17.01.2020 17:00:00 8,2 6,5 7,4 25 14 40 21 SW 15 0,0
17.01.2020 16:00:00 8,1 7,9 8,0 18 10 29 16 S 8 0,2
17.01.2020 15:00:00 7,6 7,5 7,6 22 12 32 18 S 2,8 0,2
17.01.2020 14:00:00 7,4 7,3 7,5 25 14 32 18 S 4,9 0,1
17.01.2020 13:00:00 7,3 6,9 7,5 25 14 32 18 S 4,5 0,3
17.01.2020 12:00:00 7,5 6,7 7,5 22 12 29 16 S 12 0,2
17.01.2020 11:00:00 7,6 6,7 7,5 25 14 36 19 S 10 0,1
17.01.2020 10:00:00 8,0 6,3 7,7 29 16 47 25 S 8 0,0
17.01.2020 09:00:00 8,0 5,5 7,7 32 18 43 23 S 46 0,0
17.01.2020 08:00:00 7,8 5,5 7,4 29 16 36 19 S 44 0,0
17.01.2020 07:00:00 7,6 5,5 7,2 25 14 32 18 SSE 48 0,0
17.01.2020 06:00:00 7,6 5,4 6,4 25 14 32 18 SSE 46 0,0
17.01.2020 05:00:00 7,7 5,3 7,2 25 14 36 19 SSE 48 0,0
17.01.2020 04:00:00 8,0 5,4 7,4 25 14 40 21 S 46 0,0
17.01.2020 03:00:00 8,1 5,3 7,4 32 18 43 23 S 46 0,0
17.01.2020 02:00:00 8,0 5,6 6,9 29 16 36 19 SSE 43 0,0
17.01.2020 01:00:00 7,5 5,6 6,6 25 14 36 19 SSE 37 0,0
17.01.2020 00:00:00 8,2 5,8 7,4 32 18 43 23 SSE 45 0,0
16.01.2020 23:00:00 8,2 5,8 7,1 29 16 43 23 SSE 37 0,0
16.01.2020 22:00:00 7,9 5,7 7,0 32 18 47 25 SSE 44 0,0
16.01.2020 21:00:00 7,8 5,5 7,0 36 19 47 25 SSE 38 0,0
16.01.2020 20:00:00 7,8 5,7 7,0 32 18 47 25 SSE 31 0,0
16.01.2020 19:00:00 7,8 6,0 7,1 36 19 47 25 SSE 20 0,0
16.01.2020 18:00:00 8,0 5,8 7,3 29 16 43 23 SE 29 0,0
16.01.2020 17:00:00 8,0 6,1 6,9 29 16 36 19 SSE 21 0,0
16.01.2020 16:00:00 7,9 6,1 7,3 29 16 36 19 SSE 20 0,0
16.01.2020 15:00:00 8,3 6,4 7,8 25 14 36 19 SSE 25 0,0
16.01.2020 14:00:00 7,8 6,2 7,8 25 14 36 19 SSE 21 0,0
16.01.2020 13:00:00 7,5 5,8 6,9 25 14 36 19 SSE 17 0,0
16.01.2020 12:00:00 6,6 5,3 7,1 25 14 32 18 S 12 0,0
16.01.2020 11:00:00 5,5 4,8 5,3 25 14 32 18 S 7 0,0
16.01.2020 10:00:00 5,3 4,9 5,1 22 12 32 18 S 5 0,0
16.01.2020 09:00:00 5,5 5,1 5,0 25 14 32 18 S 4,9 0,0
16.01.2020 08:00:00 5,5 5,1 4,8 22 12 29 16 S 6 0,0
16.01.2020 07:00:00 5,6 5,2 5,0 22 12 32 18 S 7 0,0
16.01.2020 06:00:00 5,8 5,3 5,1 22 12 32 18 SSW 8 0,0
16.01.2020 05:00:00 5,8 5,2 5,1 22 12 29 16 SSW 10 0,0
16.01.2020 04:00:00 6,1 5,3 5,4 22 12 32 18 SSW 12 0,0
16.01.2020 03:00:00 6,1 5,5 5,4 22 12 29 16 SSW 12 0,0
16.01.2020 02:00:00 6,5 5,6 5,7 22 12 32 18 SSW 14 0,0
16.01.2020 01:00:00 7,0 6,1 6,4 25 14 36 19 SSW 15 0,0
16.01.2020 00:00:00 7,1 6,1 6,3 25 14 36 19 SSW 15 0,0
15.01.2020 23:00:00 7,2 6,0 6,4 25 14 36 19 SW 19 0,0
15.01.2020 22:00:00 6,8 5,6 6,0 25 14 43 23 SW 20 0,0
15.01.2020 21:00:00 6,5 5,1 5,7 25 14 36 19 SW 28 0,0
15.01.2020 20:00:00 6,2 4,6 5,4 25 14 32 18 SSW 32 0,0
15.01.2020 19:00:00 6,2 5,0 5,5 22 12 29 16 SW 29 0,0

tt = temperature
td = dewpoint
tt 5cm = temperature 5cm
ff = wind speed
fx = gusts
dd = wind direction
vv = visibility
rr = precipitation

Next stations